Time;durP1;ratioP1;P1;durP2;ratioP2;P2;SDS_P1;SDS_P2;PMS_P1;PMS_P2;Temp;Humidity;BMP_temperature;BMP_pressure;BME280_temperature;BME280_humidity;BME280_pressure;Samples;Min_cycle;Max_cycle;Signal;HPM_P1;HPM_P2
2023/09/12 00:00:48;;;;;;;14.30;10.40;;;;;;;15.58;71.94;99897.91;105949;1254;60408;-82
2023/09/12 00:03:19;;;;;;;14.00;10.80;;;;;;;15.64;71.84;99891.98;105990;1254;60523;-78
2023/09/12 00:05:51;;;;;;;14.90;10.60;;;;;;;15.63;71.91;99894.60;105796;1256;74050;-82
2023/09/12 00:08:19;;;;;;;14.60;10.50;;;;;;;15.59;72.05;99899.70;105546;1260;69092;-80
2023/09/12 00:10:46;;;;;;;13.50;11.10;;;;;;;15.53;72.21;99902.05;106064;1257;73238;-84
2023/09/12 00:13:13;;;;;;;13.40;10.50;;;;;;;15.48;72.14;99901.48;106182;1258;60537;-82
2023/09/12 00:15:41;;;;;;;17.10;10.70;;;;;;;15.42;72.47;99901.31;105873;1257;60560;-82
2023/09/12 00:18:09;;;;;;;13.60;11.00;;;;;;;15.36;72.49;99902.46;105983;1254;72600;-83
2023/09/12 00:20:36;;;;;;;12.30;10.10;;;;;;;15.28;72.56;99903.65;105860;1260;70083;-83
2023/09/12 00:23:05;;;;;;;12.30;9.70;;;;;;;15.31;72.68;99906.23;105826;1258;72684;-82
2023/09/12 00:25:32;;;;;;;13.30;9.60;;;;;;;15.35;72.83;99905.14;106097;1257;60501;-80
2023/09/12 00:27:59;;;;;;;15.30;11.80;;;;;;;15.31;73.05;99906.14;107988;1254;60355;-82
2023/09/12 00:30:27;;;;;;;16.20;11.30;;;;;;;15.25;73.19;99903.86;107648;1257;72559;-81
2023/09/12 00:32:54;;;;;;;12.70;10.60;;;;;;;15.22;73.21;99906.94;106242;1260;70018;-82
2023/09/12 00:35:21;;;;;;;13.60;10.70;;;;;;;15.20;73.17;99907.25;106781;1254;72704;-80
2023/09/12 00:37:49;;;;;;;14.60;10.00;;;;;;;15.19;73.44;99903.08;108748;1251;59185;-80
2023/09/12 00:40:16;;;;;;;12.10;10.30;;;;;;;15.19;72.75;99900.16;109342;1253;58811;-82
2023/09/12 00:42:44;;;;;;;12.60;10.10;;;;;;;15.26;72.20;99902.89;109157;1251;72641;-80
2023/09/12 00:45:11;;;;;;;12.60;9.70;;;;;;;15.36;71.09;99897.16;106734;1257;68789;-79
2023/09/12 00:47:39;;;;;;;14.90;11.50;;;;;;;15.47;70.72;99900.49;106439;1257;72669;-81
2023/09/12 00:50:07;;;;;;;14.20;11.90;;;;;;;15.59;70.12;99901.95;106059;1254;61800;-80
2023/09/12 00:52:35;;;;;;;15.20;11.90;;;;;;;15.76;69.55;99898.80;105909;1254;60491;-81
2023/09/12 00:55:03;;;;;;;17.10;14.50;;;;;;;15.90;68.98;99894.83;106002;1257;73795;-82
2023/09/12 00:57:30;;;;;;;16.60;14.10;;;;;;;15.96;68.63;99899.25;105844;1254;68722;-81
2023/09/12 00:59:58;;;;;;;18.20;15.60;;;;;;;16.02;68.18;99900.19;105796;1257;72837;-82
2023/09/12 01:02:25;;;;;;;17.10;15.30;;;;;;;16.06;67.96;99899.98;106026;1253;60489;-83
2023/09/12 01:04:53;;;;;;;19.20;17.10;;;;;;;16.09;67.69;99901.20;106258;1251;60478;-81
2023/09/12 01:07:20;;;;;;;19.00;16.80;;;;;;;16.11;67.53;99898.24;109160;1254;72653;-81
2023/09/12 01:09:48;;;;;;;20.30;17.30;;;;;;;16.14;67.31;99900.94;107198;1256;69052;-83
2023/09/12 01:12:15;;;;;;;19.80;17.60;;;;;;;16.16;67.02;99902.23;106048;1251;72459;-82
2023/09/12 01:14:43;;;;;;;20.30;18.10;;;;;;;16.17;66.94;99900.66;106108;1257;60543;-82
2023/09/12 01:17:10;;;;;;;21.90;17.70;;;;;;;16.18;66.73;99903.67;105909;1256;60538;-82
2023/09/12 01:19:37;;;;;;;20.00;17.90;;;;;;;16.17;66.71;99896.90;105968;1257;73808;-82
2023/09/12 01:22:43;;;;;;;20.00;17.50;;;;;;;16.18;66.76;99894.72;105832;1257;70339;-82
2023/09/12 01:25:22;;;;;;;21.90;19.10;;;;;;;16.17;66.58;99897.29;105879;1257;72661;-80
2023/09/12 01:27:51;;;;;;;24.00;19.90;;;;;;;16.17;66.42;99896.11;105554;1254;60512;-81
2023/09/12 01:30:20;;;;;;;24.40;18.40;;;;;;;16.15;66.40;99891.63;105904;1251;60639;-81
2023/09/12 01:32:48;;;;;;;22.20;19.40;;;;;;;16.14;66.28;99891.13;105808;1257;72415;-82
2023/09/12 01:35:16;;;;;;;24.60;20.70;;;;;;;16.13;66.31;99891.95;106083;1254;68705;-82
2023/09/12 01:37:43;;;;;;;22.90;19.30;;;;;;;16.13;66.21;99890.47;106256;1251;71614;-82
2023/09/12 01:40:11;;;;;;;24.80;20.60;;;;;;;16.13;66.16;99889.43;106094;1260;60690;-83
2023/09/12 01:42:45;;;;;;;22.60;19.50;;;;;;;16.13;66.08;99891.53;106822;1252;60346;-79
2023/09/12 01:45:21;;;;;;;23.40;19.50;;;;;;;16.14;66.12;99894.46;108045;1251;72585;-81
2023/09/12 01:47:51;;;;;;;22.20;18.70;;;;;;;16.15;65.96;99892.94;109204;1251;69493;-81
2023/09/12 01:50:18;;;;;;;22.00;18.80;;;;;;;16.16;65.96;99891.48;108551;1251;71064;-81
2023/09/12 01:52:46;;;;;;;20.10;18.00;;;;;;;16.16;65.96;99897.03;106400;1254;60468;-82
2023/09/12 01:55:13;;;;;;;21.30;18.00;;;;;;;16.17;65.96;99892.45;106309;1257;60686;-80
2023/09/12 01:57:41;;;;;;;27.70;18.60;;;;;;;16.17;65.93;99890.75;106418;1254;72017;-82
2023/09/12 02:00:09;;;;;;;19.60;17.50;;;;;;;16.16;65.97;99892.82;108487;1252;69982;-81
2023/09/12 02:02:36;;;;;;;22.00;19.60;;;;;;;16.15;65.85;99894.51;107644;1251;71113;-82
2023/09/12 02:05:12;;;;;;;21.00;18.50;;;;;;;16.15;65.91;99892.89;107241;1257;60419;-82
2023/09/12 02:07:43;;;;;;;18.90;16.80;;;;;;;16.13;65.86;99892.45;108119;1253;60165;-79
2023/09/12 02:10:10;;;;;;;21.10;17.70;;;;;;;16.12;65.99;99892.19;108295;1254;72631;-77
2023/09/12 02:12:38;;;;;;;20.80;18.10;;;;;;;16.11;66.01;99890.13;105680;1257;68772;-82
2023/09/12 02:15:06;;;;;;;20.30;17.40;;;;;;;16.10;66.03;99890.29;106179;1254;71472;-83
2023/09/12 02:17:34;;;;;;;20.80;17.20;;;;;;;16.09;66.15;99893.08;106111;1251;60411;-82
2023/09/12 02:20:05;;;;;;;22.20;16.40;;;;;;;16.08;66.28;99894.23;105693;1251;60459;-80
2023/09/12 02:22:33;;;;;;;18.90;16.00;;;;;;;16.06;66.61;99889.85;106590;1251;73804;-80
2023/09/12 02:25:01;;;;;;;20.70;15.30;;;;;;;16.08;66.80;99890.36;108416;1251;69070;-82
2023/09/12 02:27:28;;;;;;;16.40;14.70;;;;;;;16.13;67.06;99890.63;106111;1255;71479;-80
2023/09/12 02:29:56;;;;;;;19.30;14.80;;;;;;;16.08;67.23;99891.69;105849;1251;60530;-80
2023/09/12 02:32:23;;;;;;;17.60;15.90;;;;;;;16.03;67.60;99894.66;105869;1257;60443;-81
2023/09/12 02:34:53;;;;;;;18.70;15.60;;;;;;;15.96;67.91;99895.42;106078;1256;73949;-81
2023/09/12 02:37:20;;;;;;;18.80;15.70;;;;;;;15.90;68.21;99898.39;106036;1255;68832;-83
2023/09/12 02:39:48;;;;;;;19.50;16.50;;;;;;;15.85;68.42;99898.54;105982;1253;72514;-80
2023/09/12 02:42:15;;;;;;;21.50;18.20;;;;;;;15.80;68.17;99897.57;106154;1254;60525;-82
2023/09/12 02:44:42;;;;;;;21.80;17.70;;;;;;;15.78;67.81;99896.16;106142;1251;60522;-79
2023/09/12 02:47:10;;;;;;;21.30;18.80;;;;;;;15.76;67.65;99894.29;106147;1257;72579;-82
2023/09/12 02:49:37;;;;;;;21.50;17.80;;;;;;;15.73;67.70;99889.38;106287;1260;68696;-81
2023/09/12 02:52:05;;;;;;;23.00;17.30;;;;;;;15.71;67.61;99893.66;108132;1253;71070;-81
2023/09/12 02:54:33;;;;;;;19.40;17.40;;;;;;;15.71;67.38;99889.67;109130;1252;58862;-81
2023/09/12 02:57:00;;;;;;;21.20;18.00;;;;;;;15.70;67.41;99893.08;108319;1251;60542;-82
2023/09/12 02:59:29;;;;;;;18.20;15.50;;;;;;;15.71;67.38;99891.77;106112;1251;72961;-81
2023/09/12 03:01:56;;;;;;;19.70;15.00;;;;;;;15.70;67.44;99892.23;107149;1251;70138;-80
2023/09/12 03:04:26;;;;;;;18.50;15.90;;;;;;;15.78;67.16;99891.77;107776;1254;71106;-81
2023/09/12 03:06:54;;;;;;;20.40;16.30;;;;;;;15.87;67.11;99894.85;106092;1257;60572;-80
2023/09/12 03:09:22;;;;;;;18.10;16.00;;;;;;;15.88;67.03;99894.44;105782;1260;60353;-77
2023/09/12 03:11:50;;;;;;;25.70;19.20;;;;;;;15.88;66.97;99897.29;106012;1251;73971;-80
2023/09/12 03:14:17;;;;;;;19.60;15.30;;;;;;;15.89;67.24;99897.73;105623;1251;70399;-80
2023/09/12 03:16:45;;;;;;;19.20;17.10;;;;;;;15.86;67.51;99895.78;106018;1254;72695;-79
2023/09/12 03:19:12;;;;;;;19.00;16.50;;;;;;;15.83;67.83;99897.58;105559;1253;60556;-78
2023/09/12 03:21:40;;;;;;;18.90;15.50;;;;;;;15.77;68.27;99895.00;105778;1252;60540;-78
2023/09/12 03:24:08;;;;;;;19.10;16.10;;;;;;;15.65;68.48;99902.70;105990;1251;71617;-80
2023/09/12 03:26:35;;;;;;;22.20;17.30;;;;;;;15.50;68.87;99905.35;105845;1251;70046;-77
2023/09/12 03:29:04;;;;;;;17.60;14.60;;;;;;;15.34;69.39;99909.50;105863;1261;72742;-77
2023/09/12 03:31:31;;;;;;;21.50;15.80;;;;;;;15.31;69.63;99911.04;105879;1257;62042;-79
2023/09/12 03:33:59;;;;;;;17.20;15.50;;;;;;;15.30;69.74;99914.52;105907;1256;60485;-82
2023/09/12 03:36:27;;;;;;;19.10;16.00;;;;;;;15.20;70.19;99913.67;105928;1257;73821;-80
2023/09/12 03:38:54;;;;;;;20.70;16.60;;;;;;;15.12;70.39;99917.93;105671;1259;69962;-80
2023/09/12 03:41:25;;;;;;;27.80;22.50;;;;;;;15.03;70.69;99918.98;108570;1251;71223;-79
2023/09/12 03:43:54;;;;;;;22.80;18.30;;;;;;;14.94;71.15;99918.85;107198;1256;60570;-82
2023/09/12 03:46:22;;;;;;;19.70;16.60;;;;;;;14.84;71.29;99916.17;106268;1251;60463;-81
2023/09/12 03:48:49;;;;;;;18.30;15.70;;;;;;;14.70;71.77;99918.08;106046;1255;72146;-81
2023/09/12 03:51:17;;;;;;;20.80;15.80;;;;;;;14.59;72.11;99916.82;105985;1258;68733;-81
2023/09/12 03:53:47;;;;;;;18.50;15.50;;;;;;;14.59;72.41;99916.54;106099;1257;72374;-79
2023/09/12 03:56:16;;;;;;;18.20;15.00;;;;;;;14.64;72.66;99917.95;105962;1254;60601;-79
2023/09/12 03:58:43;;;;;;;22.80;16.00;;;;;;;14.62;72.95;99917.64;108809;1252;60041;-80
2023/09/12 04:01:11;;;;;;;25.80;17.20;;;;;;;14.62;73.15;99918.05;108324;1251;72567;-78
2023/09/12 04:03:38;;;;;;;17.30;15.50;;;;;;;14.63;73.41;99919.71;107003;1257;68704;-79
2023/09/12 04:06:06;;;;;;;19.40;16.30;;;;;;;14.68;73.55;99923.30;106022;1254;71180;-79
2023/09/12 04:08:34;;;;;;;20.20;16.10;;;;;;;14.72;73.64;99925.71;106098;1251;60454;-78
2023/09/12 04:11:01;;;;;;;17.80;14.60;;;;;;;14.75;73.77;99924.38;105970;1251;60435;-80
2023/09/12 04:13:28;;;;;;;19.00;13.90;;;;;;;14.84;73.69;99925.76;105747;1254;73743;-78
2023/09/12 04:15:56;;;;;;;19.70;16.10;;;;;;;14.95;73.60;99927.71;105875;1254;69541;-79
2023/09/12 04:18:24;;;;;;;20.70;15.80;;;;;;;14.93;73.48;99929.54;107057;1253;71245;-80
2023/09/12 04:20:51;;;;;;;19.60;16.00;;;;;;;14.88;73.80;99926.41;108861;1253;59172;-79
2023/09/12 04:23:18;;;;;;;19.60;16.20;;;;;;;14.89;73.93;99928.76;108367;1253;60257;-79
2023/09/12 04:25:46;;;;;;;18.20;15.60;;;;;;;14.89;74.10;99930.33;106105;1251;72848;-79
2023/09/12 04:28:14;;;;;;;18.60;15.60;;;;;;;14.87;74.43;99933.27;106264;1252;70285;-80
2023/09/12 04:30:41;;;;;;;21.20;15.60;;;;;;;14.86;74.92;99933.35;105822;1258;72747;-79
2023/09/12 04:33:13;;;;;;;20.50;14.70;;;;;;;14.97;74.96;99933.15;105877;1259;60445;-80
2023/09/12 04:35:40;;;;;;;20.70;16.00;;;;;;;15.05;74.90;99934.92;105805;1256;60437;-80
2023/09/12 04:38:08;;;;;;;19.30;15.90;;;;;;;15.09;74.95;99934.66;105929;1251;74371;-81
2023/09/12 04:40:35;;;;;;;20.30;15.40;;;;;;;15.15;75.12;99934.63;105990;1253;68903;-81
2023/09/12 04:43:03;;;;;;;18.60;15.40;;;;;;;15.23;75.10;99936.59;105909;1256;72743;-82
2023/09/12 04:45:33;;;;;;;20.00;15.20;;;;;;;15.27;75.00;99933.45;105880;1251;60451;-81
2023/09/12 04:48:01;;;;;;;22.40;17.60;;;;;;;15.29;75.15;99928.06;105964;1257;60607;-81
2023/09/12 04:50:28;;;;;;;21.40;15.90;;;;;;;15.32;75.21;99926.94;106009;1253;73855;-80
2023/09/12 04:52:56;;;;;;;22.10;17.20;;;;;;;15.45;75.13;99924.52;105937;1251;70278;-79
2023/09/12 04:55:23;;;;;;;17.80;15.90;;;;;;;15.61;74.90;99928.09;105618;1259;71430;-79
2023/09/12 04:57:51;;;;;;;22.00;16.80;;;;;;;15.67;74.94;99928.91;107607;1253;60475;-78
2023/09/12 05:00:18;;;;;;;27.00;17.50;;;;;;;15.73;74.67;99929.34;107526;1253;60430;-79
2023/09/12 05:02:46;;;;;;;24.30;17.80;;;;;;;15.79;74.41;99927.08;106227;1253;74314;-81
2023/09/12 05:05:13;;;;;;;21.70;16.50;;;;;;;15.82;74.47;99929.30;108472;1251;68737;-81
2023/09/12 05:07:41;;;;;;;21.50;17.90;;;;;;;15.88;74.26;99927.07;108870;1255;71078;-81
2023/09/12 05:10:08;;;;;;;21.40;15.70;;;;;;;15.97;74.06;99927.59;107460;1256;60544;-79
2023/09/12 05:12:36;;;;;;;21.60;15.50;;;;;;;16.11;73.61;99925.71;106172;1251;60423;-81
2023/09/12 05:15:04;;;;;;;21.10;15.80;;;;;;;16.24;73.22;99926.38;106106;1258;72385;-82
2023/09/12 05:17:32;;;;;;;23.70;16.20;;;;;;;16.30;73.22;99929.89;106120;1253;70305;-82
2023/09/12 05:19:59;;;;;;;21.20;16.70;;;;;;;16.33;73.25;99930.41;106140;1257;71315;-82
2023/09/12 05:22:27;;;;;;;20.90;16.00;;;;;;;16.41;73.18;99930.52;105864;1251;60514;-82
2023/09/12 05:24:55;;;;;;;23.50;16.10;;;;;;;16.48;73.10;99930.61;105951;1251;60623;-80
2023/09/12 05:27:22;;;;;;;22.00;17.70;;;;;;;16.58;72.92;99928.41;105863;1251;73867;-82
2023/09/12 05:29:50;;;;;;;25.90;18.60;;;;;;;16.65;72.54;99928.88;106224;1251;70187;-81
2023/09/12 05:32:17;;;;;;;23.40;18.40;;;;;;;16.69;72.39;99928.64;106321;1253;73532;-81
2023/09/12 05:34:45;;;;;;;19.80;16.70;;;;;;;16.79;71.90;99929.24;106151;1260;60711;-81
2023/09/12 05:37:13;;;;;;;26.20;16.40;;;;;;;16.97;71.55;99929.11;107670;1253;170051;-82
2023/09/12 05:40:41;;;;;;;24.40;17.60;;;;;;;17.24;71.27;99932.73;102772;1296;600311;-81
2023/09/12 05:43:08;;;;;;;22.90;19.00;;;;;;;17.30;70.87;99931.32;105330;1266;60031;-80
2023/09/12 05:45:36;;;;;;;26.10;17.30;;;;;;;17.38;70.70;99934.33;105117;1265;59521;-79
2023/09/12 05:48:04;;;;;;;27.00;19.40;;;;;;;17.46;70.41;99935.41;105287;1272;72255;-81
2023/09/12 05:50:33;;;;;;;28.50;18.90;;;;;;;17.58;70.25;99936.20;105319;1267;69532;-83
2023/09/12 05:53:00;;;;;;;26.70;19.20;;;;;;;17.65;70.09;99936.48;105234;1267;72716;-81
2023/09/12 05:55:29;;;;;;;34.70;19.20;;;;;;;17.69;70.18;99937.20;105957;1252;184525;-80
2023/09/12 05:57:56;;;;;;;34.90;20.20;;;;;;;17.73;70.15;99940.89;106127;1258;59179;-80
2023/09/12 06:00:24;;;;;;;29.20;19.00;;;;;;;17.79;70.04;99938.85;106667;1253;69745;-80
2023/09/12 06:02:52;;;;;;;38.40;22.10;;;;;;;17.85;69.86;99940.36;106740;1251;68706;-80
2023/09/12 06:05:19;;;;;;;29.50;20.30;;;;;;;17.91;69.67;99944.19;106337;1254;72769;-79
2023/09/12 06:07:47;;;;;;;24.40;17.70;;;;;;;18.05;69.40;99941.98;107675;1251;63859;-80
2023/09/12 06:10:14;;;;;;;26.70;18.40;;;;;;;18.19;69.16;99944.50;109345;1251;58737;-79
2023/09/12 06:12:42;;;;;;;25.90;19.30;;;;;;;18.28;69.15;99945.05;109250;1250;71893;-78
2023/09/12 06:15:10;;;;;;;26.10;19.60;;;;;;;18.38;69.05;99946.25;108381;1251;69075;-79
2023/09/12 06:17:37;;;;;;;29.30;19.60;;;;;;;18.46;68.98;99946.86;106951;1254;71210;-81
2023/09/12 06:20:06;;;;;;;26.60;19.80;;;;;;;18.55;68.75;99947.73;106834;1254;61130;-79
2023/09/12 06:22:34;;;;;;;28.30;20.50;;;;;;;18.62;68.42;99944.32;106426;1253;59972;-80
2023/09/12 06:25:01;;;;;;;30.70;19.40;;;;;;;18.71;68.29;99949.45;106157;1252;73032;-79
2023/09/12 06:27:28;;;;;;;25.70;20.30;;;;;;;18.80;67.89;99949.30;106057;1258;68913;-78
2023/09/12 06:29:56;;;;;;;23.30;19.20;;;;;;;18.87;67.79;99954.19;106012;1254;72746;-80
2023/09/12 06:32:23;;;;;;;28.30;18.90;;;;;;;18.97;67.53;99955.06;106211;1251;59720;-79
2023/09/12 06:34:51;;;;;;;24.60;18.80;;;;;;;19.06;67.29;99953.97;105779;1257;59791;-79
2023/09/12 06:37:18;;;;;;;26.30;19.50;;;;;;;19.14;66.99;99954.45;106107;1251;72992;-80
2023/09/12 06:39:49;;;;;;;26.80;19.60;;;;;;;19.23;66.82;99955.91;105746;1251;69203;-80
2023/09/12 06:42:17;;;;;;;24.60;17.90;;;;;;;19.31;66.58;99957.52;106105;1254;72501;-79
2023/09/12 06:44:45;;;;;;;23.70;19.30;;;;;;;19.37;66.35;99957.00;106387;1254;59648;-80
2023/09/12 06:47:13;;;;;;;22.40;19.80;;;;;;;19.45;65.94;99957.67;106978;1251;59653;-80
2023/09/12 06:49:40;;;;;;;23.60;18.30;;;;;;;19.52;65.72;99959.69;106903;1251;73249;-81
2023/09/12 06:52:09;;;;;;;20.90;18.70;;;;;;;19.58;65.56;99961.06;106696;1251;68041;-80
2023/09/12 06:54:37;;;;;;;22.00;17.60;;;;;;;19.65;65.07;99960.09;107376;1253;71046;-80
2023/09/12 06:57:04;;;;;;;25.60;18.60;;;;;;;19.72;64.80;99954.00;106753;1254;59723;-81
2023/09/12 06:59:32;;;;;;;29.00;18.10;;;;;;;19.78;64.24;99954.77;106274;1257;59720;-81
2023/09/12 07:02:00;;;;;;;26.10;19.30;;;;;;;19.85;63.71;99955.86;106440;1256;73116;-80
2023/09/12 07:04:27;;;;;;;21.10;18.60;;;;;;;19.91;63.35;99957.63;106340;1251;70088;-79
2023/09/12 07:07:12;;;;;;;23.30;17.10;;;;;;;20.01;63.10;99959.55;106284;1254;72676;-80
2023/09/12 07:09:39;;;;;;;25.00;17.60;;;;;;;20.11;63.13;99959.02;106308;1251;60086;-80
2023/09/12 07:12:07;;;;;;;23.40;17.30;;;;;;;20.20;62.23;99963.63;106361;1251;60112;-80
2023/09/12 07:14:37;;;;;;;22.50;17.50;;;;;;;20.30;61.79;99964.14;106578;1253;72217;-79
2023/09/12 07:17:06;;;;;;;22.80;17.00;;;;;;;20.41;61.69;99964.08;108292;1251;68448;-80
2023/09/12 07:19:33;;;;;;;22.20;18.00;;;;;;;20.54;61.45;99963.17;108901;1251;71399;-79
2023/09/12 07:22:01;;;;;;;23.70;17.30;;;;;;;20.65;61.31;99964.91;107554;1251;60048;-80
2023/09/12 07:24:28;;;;;;;24.90;17.30;;;;;;;20.78;61.18;99961.75;106387;1251;60214;-82
2023/09/12 07:26:56;;;;;;;22.80;17.20;;;;;;;20.90;60.51;99962.27;106384;1256;72211;-80
2023/09/12 07:29:23;;;;;;;21.20;15.90;;;;;;;20.99;60.77;99963.79;107146;1252;69193;-80
2023/09/12 07:31:54;;;;;;;24.30;17.20;;;;;;;21.09;60.67;99961.98;107873;1252;70424;-81
2023/09/12 07:34:21;;;;;;;22.50;17.40;;;;;;;21.19;60.52;99959.50;106268;1253;59637;-81
2023/09/12 07:36:48;;;;;;;20.90;17.20;;;;;;;21.30;60.24;99962.65;106198;1251;59958;-82
2023/09/12 07:39:17;;;;;;;21.60;16.90;;;;;;;21.40;59.82;99960.58;106160;1253;71741;-80
2023/09/12 07:41:44;;;;;;;19.20;16.50;;;;;;;21.49;58.93;99965.30;106297;1257;68826;-81
2023/09/12 07:44:12;;;;;;;22.70;16.90;;;;;;;21.55;58.39;99963.45;106128;1251;72437;-82
2023/09/12 07:46:39;;;;;;;19.10;15.80;;;;;;;21.63;58.09;99965.14;106112;1251;60123;-82
2023/09/12 07:49:09;;;;;;;18.30;15.60;;;;;;;21.68;56.80;99967.59;106478;1256;59524;-81
2023/09/12 07:51:36;;;;;;;18.70;15.10;;;;;;;21.69;56.51;99964.67;106311;1251;73041;-80
2023/09/12 07:54:04;;;;;;;17.90;14.90;;;;;;;21.73;56.38;99959.96;106184;1251;70121;-82
2023/09/12 07:56:31;;;;;;;21.00;14.70;;;;;;;21.83;56.24;99960.30;106044;1254;71361;-82
2023/09/12 07:58:58;;;;;;;20.30;14.60;;;;;;;21.95;55.69;99959.68;106264;1252;59634;-82
2023/09/12 08:01:27;;;;;;;20.50;14.60;;;;;;;22.09;55.33;99957.75;106374;1251;60013;-81
2023/09/12 08:03:54;;;;;;;16.40;13.30;;;;;;;22.23;54.77;99956.98;108177;1251;71787;-81
2023/09/12 08:06:24;;;;;;;17.40;13.20;;;;;;;22.40;54.03;99958.04;107313;1251;70350;-82
2023/09/12 08:08:51;;;;;;;16.20;13.90;;;;;;;22.55;53.48;99957.29;107405;1251;72536;-83
2023/09/12 08:11:19;;;;;;;18.20;13.30;;;;;;;22.70;53.09;99957.95;106481;1256;60038;-82
2023/09/12 08:13:48;;;;;;;21.30;13.30;;;;;;;22.83;52.34;99963.70;106437;1251;60054;-83
2023/09/12 08:16:16;;;;;;;20.20;13.20;;;;;;;22.92;51.63;99962.30;106480;1251;73014;-83
2023/09/12 08:18:44;;;;;;;18.30;12.50;;;;;;;23.04;51.51;99964.14;106596;1251;69296;-81
2023/09/12 08:21:11;;;;;;;14.10;11.00;;;;;;;23.20;51.09;99962.27;106896;1251;72708;-83
2023/09/12 08:23:39;;;;;;;14.10;11.70;;;;;;;23.35;50.54;99959.90;108988;1251;60769;-81
2023/09/12 08:26:09;;;;;;;15.60;11.20;;;;;;;23.50;49.80;99964.31;109049;1251;60930;-81
2023/09/12 08:28:36;;;;;;;12.00;10.80;;;;;;;23.63;49.13;99964.98;107738;1251;71763;-82
2023/09/12 08:31:03;;;;;;;19.70;10.10;;;;;;;23.77;48.66;99963.89;106669;1251;68983;-82
2023/09/12 08:33:31;;;;;;;14.50;9.50;;;;;;;23.94;48.15;99967.17;106934;1251;73754;-81
2023/09/12 08:35:58;;;;;;;10.80;9.40;;;;;;;24.16;47.70;99965.73;106966;1253;59691;-82
2023/09/12 08:38:26;;;;;;;11.70;9.10;;;;;;;24.37;47.09;99966.64;107379;1251;62012;-82
2023/09/12 08:40:53;;;;;;;15.60;9.40;;;;;;;24.55;46.45;99961.04;106325;1251;71742;-81
2023/09/12 08:43:21;;;;;;;12.70;9.20;;;;;;;24.72;45.99;99955.95;106405;1251;69188;-82
2023/09/12 08:45:48;;;;;;;12.40;9.20;;;;;;;24.89;45.36;99955.14;108555;1251;71911;-83
2023/09/12 08:48:16;;;;;;;10.80;8.10;;;;;;;25.08;45.06;99955.80;107493;1254;59660;-82
2023/09/12 08:50:44;;;;;;;12.00;8.30;;;;;;;25.28;44.44;99959.88;106264;1259;60008;-80
2023/09/12 08:53:11;;;;;;;11.90;8.60;;;;;;;25.46;43.60;99957.91;106284;1251;71758;-81
2023/09/12 08:55:40;;;;;;;10.30;8.10;;;;;;;25.63;43.13;99960.80;106556;1256;70437;-82
2023/09/12 08:58:07;;;;;;;9.30;7.40;;;;;;;25.80;42.24;99961.81;106336;1253;73122;-82
2023/09/12 09:00:35;;;;;;;12.90;7.20;;;;;;;25.95;42.18;99959.86;106148;1257;59631;-82
2023/09/12 09:03:03;;;;;;;8.50;6.50;;;;;;;26.17;41.46;99962.34;106355;1251;60059;-83
2023/09/12 09:05:31;;;;;;;12.20;7.40;;;;;;;26.40;40.74;99960.36;106171;1251;72924;-82
2023/09/12 09:07:59;;;;;;;8.40;6.80;;;;;;;26.72;39.83;99958.99;106237;1257;72094;-82
2023/09/12 09:10:32;;;;;;;9.50;7.10;;;;;;;27.12;39.22;99963.08;106492;1251;71410;-82
2023/09/12 09:13:16;;;;;;;9.70;5.90;;;;;;;27.69;38.55;99967.78;107384;1251;60961;-82
2023/09/12 09:15:43;;;;;;;8.00;5.50;;;;;;;28.25;37.28;99966.54;107689;1256;61909;-83
2023/09/12 09:18:12;;;;;;;7.70;5.80;;;;;;;28.86;36.18;99965.27;108079;1256;72098;-83
2023/09/12 09:20:40;;;;;;;10.10;6.10;;;;;;;29.40;35.68;99961.21;106726;1251;69270;-82
2023/09/12 09:23:10;;;;;;;11.30;6.00;;;;;;;29.91;34.95;99963.92;107052;1254;71370;-81
2023/09/12 09:25:40;;;;;;;10.00;6.80;;;;;;;30.44;34.76;99958.02;107240;1251;60040;-82
2023/09/12 09:28:18;;;;;;;6.60;5.70;;;;;;;30.98;34.03;99955.88;106857;1257;59828;-83
2023/09/12 09:30:50;;;;;;;9.50;6.20;;;;;;;31.44;32.96;99952.02;107673;1251;71691;-79
2023/09/12 09:33:19;;;;;;;6.00;5.30;;;;;;;31.90;32.64;99951.07;109253;1251;69032;-83
2023/09/12 09:35:47;;;;;;;12.30;5.80;;;;;;;32.38;31.92;99949.65;108938;1253;71848;-83
2023/09/12 09:38:16;;;;;;;9.70;5.30;;;;;;;32.91;31.06;99949.31;107099;1254;59650;-81
2023/09/12 09:40:44;;;;;;;5.90;5.30;;;;;;;33.38;30.44;99950.48;106565;1251;60952;-80
2023/09/12 09:43:14;;;;;;;8.30;5.10;;;;;;;33.67;29.08;99950.00;106565;1251;73554;-82
2023/09/12 09:45:45;;;;;;;9.30;6.10;;;;;;;33.83;28.61;99942.86;106375;1251;70562;-83
2023/09/12 09:48:20;;;;;;;10.20;7.30;;;;;;;34.07;28.68;99940.52;106261;1254;71521;-79
2023/09/12 09:50:48;;;;;;;24.40;15.60;;;;;;;34.51;28.80;99940.14;106376;1253;60418;-81
2023/09/12 09:53:15;;;;;;;8.00;6.20;;;;;;;35.05;28.50;99940.38;106184;1251;60421;-80
2023/09/12 09:55:43;;;;;;;7.60;5.20;;;;;;;35.67;27.58;99936.69;106341;1255;76400;-84
2023/09/12 09:58:16;;;;;;;6.80;5.40;;;;;;;35.98;26.81;99934.42;106783;1251;61610;-82
2023/09/12 10:00:44;;;;;;;10.70;6.30;;;;;;;36.28;26.87;99932.27;106647;1256;63924;-82
2023/09/12 10:03:12;;;;;;;10.10;5.80;;;;;;;36.61;26.90;99932.18;108055;1251;59237;-82
2023/09/12 10:05:40;;;;;;;8.20;7.00;;;;;;;36.83;26.58;99932.05;109064;1251;58329;-82
2023/09/12 10:08:10;;;;;;;6.90;5.00;;;;;;;36.96;26.13;99936.92;109156;1251;63900;-83
2023/09/12 10:10:39;;;;;;;6.10;4.40;;;;;;;37.22;25.22;99935.98;109069;1251;60094;-81
2023/09/12 10:13:06;;;;;;;4.70;4.20;;;;;;;37.42;24.74;99939.35;107830;1259;62449;-81
2023/09/12 10:15:34;;;;;;;7.70;5.00;;;;;;;37.31;24.11;99939.83;106947;1251;60571;-82
2023/09/12 10:18:08;;;;;;;5.30;4.40;;;;;;;36.76;24.17;99938.27;106411;1251;60522;-81
2023/09/12 10:20:45;;;;;;;8.50;5.00;;;;;;;36.04;24.67;99935.59;106074;1251;64923;-83
2023/09/12 10:23:16;;;;;;;6.10;5.00;;;;;;;35.41;25.21;99934.84;106219;1256;62389;-83
2023/09/12 10:25:43;;;;;;;9.60;4.90;;;;;;;35.10;25.64;99935.08;106239;1254;66021;-82
2023/09/12 10:28:12;;;;;;;5.40;4.30;;;;;;;35.06;25.33;99933.55;106269;1252;60517;-80
2023/09/12 10:30:39;;;;;;;5.70;4.40;;;;;;;35.14;25.23;99931.25;106002;1251;60369;-81
2023/09/12 10:33:07;;;;;;;5.00;3.90;;;;;;;35.19;25.43;99928.67;106303;1256;67048;-82
2023/09/12 10:35:35;;;;;;;5.30;4.80;;;;;;;35.31;25.25;99931.80;106111;1251;60504;-81
2023/09/12 10:38:05;;;;;;;8.00;4.80;;;;;;;35.35;25.27;99930.88;106988;1251;62739;-83
2023/09/12 10:40:35;;;;;;;4.80;4.30;;;;;;;35.44;25.08;99927.53;108041;1251;60507;-81
2023/09/12 10:43:09;;;;;;;7.70;4.90;;;;;;;35.59;24.90;99924.88;109357;1252;58018;-81
2023/09/12 10:45:37;;;;;;;7.20;5.10;;;;;;;35.63;24.84;99923.10;109177;1251;64212;-83
2023/09/12 10:48:04;;;;;;;5.90;4.70;;;;;;;35.67;25.14;99917.54;107765;1251;62765;-83
2023/09/12 10:50:32;;;;;;;5.50;4.80;;;;;;;35.89;25.19;99915.26;107490;1254;62568;-84
2023/09/12 10:53:14;;;;;;;5.80;4.60;;;;;;;36.29;24.80;99916.59;106585;1257;59781;-83
2023/09/12 10:55:41;;;;;;;8.40;4.80;;;;;;;36.57;24.43;99914.85;106593;1251;60440;-82
2023/09/12 10:58:10;;;;;;;6.80;5.10;;;;;;;36.82;24.51;99911.20;106399;1251;65998;-81
2023/09/12 11:00:39;;;;;;;5.20;4.70;;;;;;;37.21;24.30;99909.73;106527;1251;60634;-82
2023/09/12 11:03:33;;;;;;;6.90;5.00;;;;;;;37.90;24.02;99901.88;106283;1254;64118;-81
2023/09/12 11:06:01;;;;;;;7.30;5.20;;;;;;;38.82;23.59;99900.86;106213;1253;60545;-82
2023/09/12 11:08:29;;;;;;;6.50;4.90;;;;;;;39.55;22.98;99894.05;106364;1251;60357;-83
2023/09/12 11:11:16;;;;;;;9.40;5.10;;;;;;;39.94;22.53;99892.77;106120;1257;65030;-83
2023/09/12 11:13:45;;;;;;;5.70;4.50;;;;;;;40.24;22.29;99892.63;106267;1251;61577;-82
2023/09/12 11:16:14;;;;;;;6.50;5.10;;;;;;;40.60;22.22;99894.10;106314;1251;62650;-83
2023/09/12 11:19:22;;;;;;;7.90;5.40;;;;;;;40.93;21.75;99892.92;106817;1251;60499;-82